Time,TemperatureF,DewpointF,PressureIn,WindDirection,WindDirectionDegrees,WindSpeedMPH,WindSpeedGustMPH,Humidity,HourlyPrecipIn,Conditions,Clouds,dailyrainin,SolarRadiationWatts/m^2,SoftwareType,DateUTC
2013-06-08 00:23:00,40.0,34.0,-100.00,ENE,57,1.0,4.0,79,-99.99,,,0.00,0.000000,,2013-06-08 04:23:00,
2013-06-08 00:33:00,40.0,34.0,-100.00,ENE,57,1.0,4.0,79,-99.99,,,0.00,0.000000,,2013-06-08 04:33:00,
2013-06-08 01:22:00,41.0,37.0,-100.00,West,280,2.0,4.0,84,-99.99,,,0.00,0.000000,,2013-06-08 05:22:00,
2013-06-08 01:32:00,41.0,37.0,-100.00,West,280,2.0,4.0,84,-99.99,,,0.00,0.000000,,2013-06-08 05:32:00,
2013-06-08 01:42:00,41.0,37.0,-100.00,West,280,2.0,4.0,84,-99.99,,,0.00,0.000000,,2013-06-08 05:42:00,
2013-06-08 01:53:00,41.0,37.0,-100.00,West,280,2.0,4.0,84,-99.99,,,0.00,0.000000,,2013-06-08 05:53:00,
2013-06-08 02:02:00,41.0,37.0,-100.00,West,280,2.0,4.0,84,-99.99,,,0.00,0.000000,,2013-06-08 06:02:00,
2013-06-08 02:22:00,42.0,37.0,-100.00,West,265,2.0,4.0,83,0.00,,,0.00,0.000000,,2013-06-08 06:22:00,
2013-06-08 02:32:00,42.0,37.0,-100.00,West,265,2.0,4.0,83,0.00,,,0.00,0.000000,,2013-06-08 06:32:00,
2013-06-08 02:42:00,42.0,37.0,-100.00,West,265,2.0,4.0,83,0.00,,,0.00,0.000000,,2013-06-08 06:42:00,
2013-06-08 02:53:00,42.0,37.0,-100.00,West,265,2.0,4.0,83,0.00,,,0.00,0.000000,,2013-06-08 06:53:00,
2013-06-08 03:02:00,42.0,37.0,-100.00,West,265,2.0,4.0,83,0.00,,,0.00,0.000000,,2013-06-08 07:02:00,
2013-06-08 03:22:00,40.0,36.0,-100.00,WNW,286,2.0,4.0,84,0.00,,,0.00,0.000000,,2013-06-08 07:22:00,
2013-06-08 03:32:00,40.0,36.0,-100.00,WNW,286,2.0,4.0,84,0.00,,,0.00,0.000000,,2013-06-08 07:32:00,
2013-06-08 03:42:00,40.0,36.0,-100.00,WNW,286,2.0,4.0,84,0.00,,,0.00,0.000000,,2013-06-08 07:42:00,
2013-06-08 03:52:00,40.0,36.0,-100.00,WNW,286,2.0,4.0,84,0.00,,,0.00,0.000000,,2013-06-08 07:52:00,
2013-06-08 04:02:00,40.0,36.0,-100.00,WNW,286,2.0,4.0,84,0.00,,,0.00,0.000000,,2013-06-08 08:02:00,
2013-06-08 04:22:00,36.0,31.0,-100.00,ENE,69,0.0,4.0,83,0.00,,,0.00,0.000000,,2013-06-08 08:22:00,
2013-06-08 04:32:00,36.0,31.0,-100.00,ENE,69,0.0,4.0,83,0.00,,,0.00,0.000000,,2013-06-08 08:32:00,
2013-06-08 05:22:00,35.0,32.0,-100.00,ENE,71,1.0,3.0,87,-99.99,,,0.00,0.000000,,2013-06-08 09:22:00,
2013-06-08 05:33:00,35.0,32.0,-100.00,ENE,71,1.0,3.0,87,-99.99,,,0.00,0.000000,,2013-06-08 09:33:00,
2013-06-08 06:23:00,34.0,31.0,-100.00,SSW,210,0.0,4.0,89,-99.99,,,0.00,4.000000,,2013-06-08 10:23:00,
2013-06-08 06:33:00,34.0,31.0,-100.00,SSW,210,0.0,4.0,89,-99.99,,,0.00,4.000000,,2013-06-08 10:33:00,
2013-06-08 07:22:00,41.0,39.0,-100.00,North,10,2.0,5.0,91,-99.99,,,0.00,52.000000,,2013-06-08 11:22:00,
2013-06-08 07:32:00,41.0,39.0,-100.00,North,10,2.0,5.0,91,-99.99,,,0.00,52.000000,,2013-06-08 11:32:00,
2013-06-08 07:42:00,41.0,39.0,-100.00,North,10,2.0,5.0,91,-99.99,,,0.00,52.000000,,2013-06-08 11:42:00,
2013-06-08 07:52:00,41.0,39.0,-100.00,North,10,2.0,5.0,91,-99.99,,,0.00,52.000000,,2013-06-08 11:52:00,
2013-06-08 08:02:00,41.0,39.0,-100.00,North,10,2.0,5.0,91,-99.99,,,0.00,52.000000,,2013-06-08 12:02:00,
2013-06-08 08:22:00,53.0,42.0,-100.00,NNW,342,5.0,10.0,67,0.00,,,0.00,253.000000,,2013-06-08 12:22:00,
2013-06-08 08:33:00,53.0,42.0,-100.00,NNW,342,5.0,10.0,67,0.00,,,0.00,253.000000,,2013-06-08 12:33:00,
2013-06-08 08:42:00,53.0,42.0,-100.00,NNW,342,5.0,10.0,67,0.00,,,0.00,253.000000,,2013-06-08 12:42:00,
2013-06-08 08:52:00,53.0,42.0,-100.00,NNW,342,5.0,10.0,67,0.00,,,0.00,253.000000,,2013-06-08 12:52:00,
2013-06-08 09:02:00,53.0,42.0,-100.00,NNW,342,5.0,10.0,67,0.00,,,0.00,253.000000,,2013-06-08 13:02:00,
2013-06-08 09:22:00,56.0,41.0,-100.00,NNE,13,6.0,13.0,57,0.00,,,0.00,423.000000,,2013-06-08 13:22:00,
2013-06-08 09:32:00,56.0,41.0,-100.00,NNE,13,6.0,13.0,57,0.00,,,0.00,423.000000,,2013-06-08 13:32:00,
2013-06-08 09:42:00,56.0,41.0,-100.00,NNE,13,6.0,13.0,57,0.00,,,0.00,423.000000,,2013-06-08 13:42:00,
2013-06-08 09:53:00,56.0,41.0,-100.00,NNE,13,6.0,13.0,57,0.00,,,0.00,423.000000,,2013-06-08 13:53:00,
2013-06-08 10:02:00,56.0,41.0,-100.00,NNE,13,6.0,13.0,57,0.00,,,0.00,423.000000,,2013-06-08 14:02:00,
2013-06-08 10:22:00,60.0,44.0,-100.00,NNE,23,4.0,8.0,55,0.00,,,0.00,474.000000,,2013-06-08 14:22:00,
2013-06-08 10:32:00,60.0,44.0,-100.00,NNE,23,4.0,8.0,55,0.00,,,0.00,474.000000,,2013-06-08 14:32:00,
2013-06-08 10:42:00,60.0,44.0,-100.00,NNE,23,4.0,8.0,55,0.00,,,0.00,474.000000,,2013-06-08 14:42:00,
2013-06-08 10:52:00,60.0,44.0,-100.00,NNE,23,4.0,8.0,55,0.00,,,0.00,474.000000,,2013-06-08 14:52:00,
2013-06-08 11:02:00,60.0,44.0,-100.00,NNE,23,4.0,8.0,55,0.00,,,0.00,474.000000,,2013-06-08 15:02:00,
2013-06-08 11:22:00,65.0,41.0,-100.00,NNE,25,5.0,8.0,42,0.00,,,0.00,735.000000,,2013-06-08 15:22:00,
2013-06-08 11:33:00,65.0,41.0,-100.00,NNE,25,5.0,8.0,42,0.00,,,0.00,735.000000,,2013-06-08 15:33:00,
2013-06-08 12:23:00,67.0,36.0,-100.00,North,351,4.0,8.0,32,-99.99,,,0.00,665.000000,,2013-06-08 16:23:00,
2013-06-08 12:33:00,67.0,36.0,-100.00,North,351,4.0,8.0,32,-99.99,,,0.00,665.000000,,2013-06-08 16:33:00,
2013-06-08 13:23:00,70.0,40.0,-100.00,South,177,4.0,7.0,33,-99.99,,,0.00,634.000000,,2013-06-08 17:23:00,
2013-06-08 13:32:00,70.0,40.0,-100.00,South,177,4.0,7.0,33,-99.99,,,0.00,634.000000,,2013-06-08 17:32:00,
2013-06-08 14:22:00,73.0,38.0,-100.00,SW,214,3.0,6.0,28,0.00,,,0.00,614.000000,,2013-06-08 18:22:00,
2013-06-08 14:32:00,73.0,38.0,-100.00,SW,214,3.0,6.0,28,0.00,,,0.00,614.000000,,2013-06-08 18:32:00,
2013-06-08 15:22:00,74.0,39.0,-100.00,South,178,5.0,11.0,28,-99.99,,,0.00,884.000000,,2013-06-08 19:22:00,
2013-06-08 15:32:00,74.0,39.0,-100.00,South,178,5.0,11.0,28,-99.99,,,0.00,884.000000,,2013-06-08 19:32:00,
2013-06-08 16:22:00,68.0,39.0,-100.00,NNE,16,7.0,11.0,35,-99.99,,,0.00,283.000000,,2013-06-08 20:22:00,
2013-06-08 16:32:00,68.0,39.0,-100.00,NNE,16,7.0,11.0,35,-99.99,,,0.00,283.000000,,2013-06-08 20:32:00,
2013-06-08 16:42:00,68.0,39.0,-100.00,NNE,16,7.0,11.0,35,-99.99,,,0.00,283.000000,,2013-06-08 20:42:00,
2013-06-08 16:53:00,68.0,39.0,-100.00,NNE,16,7.0,11.0,35,-99.99,,,0.00,283.000000,,2013-06-08 20:53:00,
2013-06-08 17:02:00,68.0,39.0,-100.00,NNE,16,7.0,11.0,35,-99.99,,,0.00,283.000000,,2013-06-08 21:02:00,
2013-06-08 17:22:00,60.0,47.0,-100.00,NNE,26,4.0,11.0,61,0.06,,,0.06,121.000000,,2013-06-08 21:22:00,
2013-06-08 17:33:00,60.0,47.0,-100.00,NNE,26,4.0,11.0,61,0.06,,,0.06,121.000000,,2013-06-08 21:33:00,
2013-06-08 17:43:00,60.0,47.0,-100.00,NNE,26,4.0,11.0,61,0.06,,,0.06,121.000000,,2013-06-08 21:43:00,
2013-06-08 17:53:00,60.0,47.0,-100.00,NNE,26,4.0,11.0,61,0.06,,,0.06,121.000000,,2013-06-08 21:53:00,
2013-06-08 18:23:00,63.0,41.0,-100.00,North,359,5.0,10.0,44,-99.99,,,0.06,153.000000,,2013-06-08 22:23:00,
2013-06-08 18:33:00,63.0,41.0,-100.00,North,359,5.0,10.0,44,-99.99,,,0.06,153.000000,,2013-06-08 22:33:00,
2013-06-08 18:43:00,63.0,41.0,-100.00,North,359,5.0,10.0,44,-99.99,,,0.06,153.000000,,2013-06-08 22:43:00,
2013-06-08 18:53:00,63.0,41.0,-100.00,North,359,5.0,10.0,44,-99.99,,,0.06,153.000000,,2013-06-08 22:53:00,
2013-06-08 19:02:00,63.0,41.0,-100.00,North,359,5.0,10.0,44,-99.99,,,0.06,153.000000,,2013-06-08 23:02:00,
2013-06-08 19:22:00,67.0,38.0,-100.00,NE,48,6.0,9.0,34,0.00,,,0.06,304.000000,,2013-06-08 23:22:00,
2013-06-08 19:32:00,67.0,38.0,-100.00,NE,48,6.0,9.0,34,0.00,,,0.06,304.000000,,2013-06-08 23:32:00,
2013-06-08 19:42:00,67.0,38.0,-100.00,NE,48,6.0,9.0,34,0.00,,,0.06,304.000000,,2013-06-08 23:42:00,
2013-06-08 19:52:00,67.0,38.0,-100.00,NE,48,6.0,9.0,34,0.00,,,0.06,304.000000,,2013-06-08 23:52:00,
2013-06-08 20:02:00,67.0,38.0,-100.00,NE,48,6.0,9.0,34,0.00,,,0.06,304.000000,,2013-06-09 00:02:00,
2013-06-08 20:22:00,63.0,35.0,-100.00,NE,42,4.0,10.0,35,0.00,,,0.06,153.000000,,2013-06-09 00:22:00,
2013-06-08 20:32:00,63.0,35.0,-100.00,NE,42,4.0,10.0,35,0.00,,,0.06,153.000000,,2013-06-09 00:32:00,
2013-06-08 20:42:00,63.0,35.0,-100.00,NE,42,4.0,10.0,35,0.00,,,0.06,153.000000,,2013-06-09 00:42:00,
2013-06-08 20:52:00,63.0,35.0,-100.00,NE,42,4.0,10.0,35,0.00,,,0.06,153.000000,,2013-06-09 00:52:00,
2013-06-08 21:02:00,63.0,35.0,-100.00,NE,42,4.0,10.0,35,0.00,,,0.06,153.000000,,2013-06-09 01:02:00,
2013-06-08 21:22:00,57.0,34.0,-100.00,NNE,14,3.0,7.0,42,0.00,,,0.06,110.000000,,2013-06-09 01:22:00,
2013-06-08 21:32:00,57.0,34.0,-100.00,NNE,14,3.0,7.0,42,0.00,,,0.06,110.000000,,2013-06-09 01:32:00,
2013-06-08 21:42:00,57.0,34.0,-100.00,NNE,14,3.0,7.0,42,0.00,,,0.06,110.000000,,2013-06-09 01:42:00,
2013-06-08 21:52:00,57.0,34.0,-100.00,NNE,14,3.0,7.0,42,0.00,,,0.06,110.000000,,2013-06-09 01:52:00,
2013-06-08 22:02:00,57.0,34.0,-100.00,NNE,14,3.0,7.0,42,0.00,,,0.06,110.000000,,2013-06-09 02:02:00,
2013-06-08 22:22:00,49.0,38.0,-100.00,NE,40,1.0,5.0,66,0.00,,,0.06,6.000000,,2013-06-09 02:22:00,
2013-06-08 22:32:00,49.0,38.0,-100.00,NE,40,1.0,5.0,66,0.00,,,0.06,6.000000,,2013-06-09 02:32:00,
2013-06-08 22:42:00,49.0,38.0,-100.00,NE,40,1.0,5.0,66,0.00,,,0.06,6.000000,,2013-06-09 02:42:00,
2013-06-08 22:52:00,49.0,38.0,-100.00,NE,40,1.0,5.0,66,0.00,,,0.06,6.000000,,2013-06-09 02:52:00,
2013-06-08 23:02:00,49.0,38.0,-100.00,NE,40,1.0,5.0,66,0.00,,,0.06,6.000000,,2013-06-09 03:02:00,
2013-06-08 23:22:00,44.0,38.0,-100.00,North,359,0.0,3.0,79,0.00,,,0.06,0.000000,,2013-06-09 03:22:00,
2013-06-08 23:33:00,44.0,38.0,-100.00,North,359,0.0,3.0,79,0.00,,,0.06,0.000000,,2013-06-09 03:33:00,